sensor_id;sensor_type;location;lat;lon;timestamp;pressure;altitude;pressure_sealevel;temperature
20289;BMP180;10303;51.960;8.372;2022-07-15T00:02:25;101016.00;;;17.70
20289;BMP180;10303;51.960;8.372;2022-07-15T00:04:52;101009.00;;;17.70
20289;BMP180;10303;51.960;8.372;2022-07-15T00:07:18;101014.00;;;17.60
20289;BMP180;10303;51.960;8.372;2022-07-15T00:09:46;101003.00;;;17.60
20289;BMP180;10303;51.960;8.372;2022-07-15T00:12:39;101013.00;;;17.50
20289;BMP180;10303;51.960;8.372;2022-07-15T00:15:07;101018.00;;;17.50
20289;BMP180;10303;51.960;8.372;2022-07-15T00:17:34;101018.00;;;17.50
20289;BMP180;10303;51.960;8.372;2022-07-15T00:20:01;101012.00;;;17.40
20289;BMP180;10303;51.960;8.372;2022-07-15T00:22:28;101023.00;;;17.40
20289;BMP180;10303;51.960;8.372;2022-07-15T00:24:54;101013.00;;;17.40
20289;BMP180;10303;51.960;8.372;2022-07-15T00:27:20;101010.00;;;17.40
20289;BMP180;10303;51.960;8.372;2022-07-15T00:29:46;101008.00;;;17.30
20289;BMP180;10303;51.960;8.372;2022-07-15T00:32:12;101010.00;;;17.30
20289;BMP180;10303;51.960;8.372;2022-07-15T00:34:38;101018.00;;;17.30
20289;BMP180;10303;51.960;8.372;2022-07-15T00:37:04;101009.00;;;17.20
20289;BMP180;10303;51.960;8.372;2022-07-15T00:39:30;101017.00;;;17.20
20289;BMP180;10303;51.960;8.372;2022-07-15T00:41:56;101013.00;;;17.20
20289;BMP180;10303;51.960;8.372;2022-07-15T00:44:22;101015.00;;;17.10
20289;BMP180;10303;51.960;8.372;2022-07-15T00:46:49;101013.00;;;17.10
20289;BMP180;10303;51.960;8.372;2022-07-15T00:49:15;101006.00;;;17.00
20289;BMP180;10303;51.960;8.372;2022-07-15T00:51:49;101006.00;;;17.00
20289;BMP180;10303;51.960;8.372;2022-07-15T00:54:17;101012.00;;;17.00
20289;BMP180;10303;51.960;8.372;2022-07-15T00:56:56;101016.00;;;16.90
20289;BMP180;10303;51.960;8.372;2022-07-15T00:59:28;101011.00;;;16.90
20289;BMP180;10303;51.960;8.372;2022-07-15T01:01:56;101011.00;;;16.80
20289;BMP180;10303;51.960;8.372;2022-07-15T01:04:24;101017.00;;;16.80
20289;BMP180;10303;51.960;8.372;2022-07-15T01:06:53;101015.00;;;16.80
20289;BMP180;10303;51.960;8.372;2022-07-15T01:09:19;101013.00;;;16.70
20289;BMP180;10303;51.960;8.372;2022-07-15T01:11:46;101018.00;;;16.70
20289;BMP180;10303;51.960;8.372;2022-07-15T01:14:13;101015.00;;;16.70
20289;BMP180;10303;51.960;8.372;2022-07-15T01:16:39;101018.00;;;16.70
20289;BMP180;10303;51.960;8.372;2022-07-15T01:19:05;101012.00;;;16.60
20289;BMP180;10303;51.960;8.372;2022-07-15T01:21:41;101014.00;;;16.60
20289;BMP180;10303;51.960;8.372;2022-07-15T01:24:07;101018.00;;;16.60
20289;BMP180;10303;51.960;8.372;2022-07-15T01:26:48;101020.00;;;16.60
20289;BMP180;10303;51.960;8.372;2022-07-15T01:29:18;101023.00;;;16.60
20289;BMP180;10303;51.960;8.372;2022-07-15T01:31:44;101026.00;;;16.50
20289;BMP180;10303;51.960;8.372;2022-07-15T01:34:11;101020.00;;;16.50
20289;BMP180;10303;51.960;8.372;2022-07-15T01:36:37;101024.00;;;16.50
20289;BMP180;10303;51.960;8.372;2022-07-15T01:39:04;101026.00;;;16.40
20289;BMP180;10303;51.960;8.372;2022-07-15T01:41:30;101030.00;;;16.40
20289;BMP180;10303;51.960;8.372;2022-07-15T01:43:58;101028.00;;;16.40
20289;BMP180;10303;51.960;8.372;2022-07-15T01:46:24;101024.00;;;16.40
20289;BMP180;10303;51.960;8.372;2022-07-15T01:48:50;101029.00;;;16.30
20289;BMP180;10303;51.960;8.372;2022-07-15T01:51:44;101034.00;;;16.30
20289;BMP180;10303;51.960;8.372;2022-07-15T01:54:10;101036.00;;;16.20
20289;BMP180;10303;51.960;8.372;2022-07-15T01:56:36;101034.00;;;16.20
20289;BMP180;10303;51.960;8.372;2022-07-15T01:59:03;101042.00;;;16.20
20289;BMP180;10303;51.960;8.372;2022-07-15T02:01:30;101036.00;;;16.10
20289;BMP180;10303;51.960;8.372;2022-07-15T02:03:59;101032.00;;;16.10
20289;BMP180;10303;51.960;8.372;2022-07-15T02:06:25;101032.00;;;16.00
20289;BMP180;10303;51.960;8.372;2022-07-15T02:08:52;101029.00;;;16.00
20289;BMP180;10303;51.960;8.372;2022-07-15T02:11:20;101038.00;;;16.00
20289;BMP180;10303;51.960;8.372;2022-07-15T02:13:49;101032.00;;;15.90
20289;BMP180;10303;51.960;8.372;2022-07-15T02:16:16;101042.00;;;15.90
20289;BMP180;10303;51.960;8.372;2022-07-15T02:18:42;101042.00;;;15.80
20289;BMP180;10303;51.960;8.372;2022-07-15T02:21:08;101039.00;;;15.80
20289;BMP180;10303;51.960;8.372;2022-07-15T02:23:34;101029.00;;;15.70
20289;BMP180;10303;51.960;8.372;2022-07-15T02:26:00;101039.00;;;15.70
20289;BMP180;10303;51.960;8.372;2022-07-15T02:28:27;101038.00;;;15.70
20289;BMP180;10303;51.960;8.372;2022-07-15T02:30:54;101034.00;;;15.60
20289;BMP180;10303;51.960;8.372;2022-07-15T02:33:20;101037.00;;;15.60
20289;BMP180;10303;51.960;8.372;2022-07-15T02:35:46;101040.00;;;15.50
20289;BMP180;10303;51.960;8.372;2022-07-15T02:38:12;101050.00;;;15.50
20289;BMP180;10303;51.960;8.372;2022-07-15T02:40:38;101053.00;;;15.50
20289;BMP180;10303;51.960;8.372;2022-07-15T02:43:04;101052.00;;;15.50
20289;BMP180;10303;51.960;8.372;2022-07-15T02:45:36;101043.00;;;15.40
20289;BMP180;10303;51.960;8.372;2022-07-15T02:48:07;101046.00;;;15.40
20289;BMP180;10303;51.960;8.372;2022-07-15T02:50:36;101060.00;;;15.30
20289;BMP180;10303;51.960;8.372;2022-07-15T02:53:03;101054.00;;;15.30
20289;BMP180;10303;51.960;8.372;2022-07-15T02:55:30;101050.00;;;15.20
20289;BMP180;10303;51.960;8.372;2022-07-15T02:57:56;101058.00;;;15.20
20289;BMP180;10303;51.960;8.372;2022-07-15T03:00:23;101066.00;;;15.20
20289;BMP180;10303;51.960;8.372;2022-07-15T03:02:56;101058.00;;;15.10
20289;BMP180;10303;51.960;8.372;2022-07-15T03:05:22;101061.00;;;15.10
20289;BMP180;10303;51.960;8.372;2022-07-15T03:07:48;101068.00;;;15.10
20289;BMP180;10303;51.960;8.372;2022-07-15T03:10:18;101060.00;;;15.00
20289;BMP180;10303;51.960;8.372;2022-07-15T03:12:46;101061.00;;;15.00
20289;BMP180;10303;51.960;8.372;2022-07-15T03:15:12;101060.00;;;15.00
20289;BMP180;10303;51.960;8.372;2022-07-15T03:17:38;101067.00;;;15.00
20289;BMP180;10303;51.960;8.372;2022-07-15T03:20:09;101065.00;;;15.00
20289;BMP180;10303;51.960;8.372;2022-07-15T03:22:41;101073.00;;;14.90
20289;BMP180;10303;51.960;8.372;2022-07-15T03:25:08;101075.00;;;14.90
20289;BMP180;10303;51.960;8.372;2022-07-15T03:27:34;101071.00;;;14.90
20289;BMP180;10303;51.960;8.372;2022-07-15T03:30:01;101073.00;;;14.80
20289;BMP180;10303;51.960;8.372;2022-07-15T03:32:27;101083.00;;;14.80
20289;BMP180;10303;51.960;8.372;2022-07-15T03:34:53;101077.00;;;14.80
20289;BMP180;10303;51.960;8.372;2022-07-15T03:37:24;101073.00;;;14.80
20289;BMP180;10303;51.960;8.372;2022-07-15T03:39:50;101076.00;;;14.80
20289;BMP180;10303;51.960;8.372;2022-07-15T03:42:17;101074.00;;;14.70
20289;BMP180;10303;51.960;8.372;2022-07-15T03:44:44;101086.00;;;14.70
20289;BMP180;10303;51.960;8.372;2022-07-15T03:47:10;101079.00;;;14.70
20289;BMP180;10303;51.960;8.372;2022-07-15T03:49:36;101086.00;;;14.60
20289;BMP180;10303;51.960;8.372;2022-07-15T03:52:04;101087.00;;;14.60
20289;BMP180;10303;51.960;8.372;2022-07-15T03:54:33;101092.00;;;14.60
20289;BMP180;10303;51.960;8.372;2022-07-15T03:57:02;101093.00;;;14.60
20289;BMP180;10303;51.960;8.372;2022-07-15T03:59:28;101090.00;;;14.50
20289;BMP180;10303;51.960;8.372;2022-07-15T04:01:55;101095.00;;;14.50
20289;BMP180;10303;51.960;8.372;2022-07-15T04:04:21;101092.00;;;14.50
20289;BMP180;10303;51.960;8.372;2022-07-15T04:06:47;101100.00;;;14.50
20289;BMP180;10303;51.960;8.372;2022-07-15T04:09:13;101101.00;;;14.40
20289;BMP180;10303;51.960;8.372;2022-07-15T04:11:39;101106.00;;;14.40
20289;BMP180;10303;51.960;8.372;2022-07-15T04:14:12;101104.00;;;14.40
20289;BMP180;10303;51.960;8.372;2022-07-15T04:16:44;101111.00;;;14.40
20289;BMP180;10303;51.960;8.372;2022-07-15T04:19:29;101108.00;;;14.40
20289;BMP180;10303;51.960;8.372;2022-07-15T04:21:58;101104.00;;;14.30
20289;BMP180;10303;51.960;8.372;2022-07-15T04:24:25;101103.00;;;14.30
20289;BMP180;10303;51.960;8.372;2022-07-15T04:26:50;101118.00;;;14.30
20289;BMP180;10303;51.960;8.372;2022-07-15T04:29:17;101114.00;;;14.30
20289;BMP180;10303;51.960;8.372;2022-07-15T04:31:44;101117.00;;;14.30
20289;BMP180;10303;51.960;8.372;2022-07-15T04:34:16;101123.00;;;14.30
20289;BMP180;10303;51.960;8.372;2022-07-15T04:36:44;101123.00;;;14.30
20289;BMP180;10303;51.960;8.372;2022-07-15T04:39:10;101122.00;;;14.30
20289;BMP180;10303;51.960;8.372;2022-07-15T04:41:36;101121.00;;;14.30
20289;BMP180;10303;51.960;8.372;2022-07-15T04:44:04;101119.00;;;14.30
20289;BMP180;10303;51.960;8.372;2022-07-15T04:46:31;101124.00;;;14.30
20289;BMP180;10303;51.960;8.372;2022-07-15T04:49:20;101120.00;;;14.30
20289;BMP180;10303;51.960;8.372;2022-07-15T04:52:05;101123.00;;;14.40
20289;BMP180;10303;51.960;8.372;2022-07-15T04:54:33;101127.00;;;14.40
20289;BMP180;10303;51.960;8.372;2022-07-15T04:57:00;101129.00;;;14.40
20289;BMP180;10303;51.960;8.372;2022-07-15T04:59:27;101122.00;;;14.40
20289;BMP180;10303;51.960;8.372;2022-07-15T05:01:53;101129.00;;;14.50
20289;BMP180;10303;51.960;8.372;2022-07-15T05:04:29;101124.00;;;14.50
20289;BMP180;10303;51.960;8.372;2022-07-15T05:06:55;101123.00;;;14.50
20289;BMP180;10303;51.960;8.372;2022-07-15T05:09:23;101129.00;;;14.50
20289;BMP180;10303;51.960;8.372;2022-07-15T05:11:49;101132.00;;;14.60
20289;BMP180;10303;51.960;8.372;2022-07-15T05:14:17;101133.00;;;14.60
20289;BMP180;10303;51.960;8.372;2022-07-15T05:16:44;101130.00;;;14.60
20289;BMP180;10303;51.960;8.372;2022-07-15T05:19:10;101139.00;;;14.70
20289;BMP180;10303;51.960;8.372;2022-07-15T05:21:36;101137.00;;;14.80
20289;BMP180;10303;51.960;8.372;2022-07-15T05:24:04;101139.00;;;14.80
20289;BMP180;10303;51.960;8.372;2022-07-15T05:26:31;101143.00;;;14.90
20289;BMP180;10303;51.960;8.372;2022-07-15T05:28:57;101137.00;;;15.00
20289;BMP180;10303;51.960;8.372;2022-07-15T05:31:23;101138.00;;;15.10
20289;BMP180;10303;51.960;8.372;2022-07-15T05:33:49;101133.00;;;15.20
20289;BMP180;10303;51.960;8.372;2022-07-15T05:36:15;101133.00;;;15.30
20289;BMP180;10303;51.960;8.372;2022-07-15T05:38:45;101142.00;;;15.30
20289;BMP180;10303;51.960;8.372;2022-07-15T05:41:12;101141.00;;;15.40
20289;BMP180;10303;51.960;8.372;2022-07-15T05:43:38;101152.00;;;15.50
20289;BMP180;10303;51.960;8.372;2022-07-15T05:46:05;101149.00;;;15.60
20289;BMP180;10303;51.960;8.372;2022-07-15T05:48:38;101154.00;;;15.70
20289;BMP180;10303;51.960;8.372;2022-07-15T05:51:05;101156.00;;;15.80
20289;BMP180;10303;51.960;8.372;2022-07-15T05:53:31;101160.00;;;15.90
20289;BMP180;10303;51.960;8.372;2022-07-15T05:55:59;101156.00;;;15.90
20289;BMP180;10303;51.960;8.372;2022-07-15T05:58:26;101156.00;;;16.00
20289;BMP180;10303;51.960;8.372;2022-07-15T06:00:54;101164.00;;;16.10
20289;BMP180;10303;51.960;8.372;2022-07-15T06:03:22;101167.00;;;16.20
20289;BMP180;10303;51.960;8.372;2022-07-15T06:05:48;101154.00;;;16.30
20289;BMP180;10303;51.960;8.372;2022-07-15T06:08:14;101158.00;;;16.40
20289;BMP180;10303;51.960;8.372;2022-07-15T06:10:44;101164.00;;;16.60
20289;BMP180;10303;51.960;8.372;2022-07-15T06:13:11;101161.00;;;16.60
20289;BMP180;10303;51.960;8.372;2022-07-15T06:15:38;101170.00;;;16.70
20289;BMP180;10303;51.960;8.372;2022-07-15T06:18:06;101168.00;;;16.80
20289;BMP180;10303;51.960;8.372;2022-07-15T06:20:33;101166.00;;;16.90
20289;BMP180;10303;51.960;8.372;2022-07-15T06:23:00;101172.00;;;17.00
20289;BMP180;10303;51.960;8.372;2022-07-15T06:25:26;101175.00;;;17.00
20289;BMP180;10303;51.960;8.372;2022-07-15T06:27:52;101169.00;;;17.10
20289;BMP180;10303;51.960;8.372;2022-07-15T06:30:18;101167.00;;;17.20
20289;BMP180;10303;51.960;8.372;2022-07-15T06:32:44;101163.00;;;17.30
20289;BMP180;10303;51.960;8.372;2022-07-15T06:35:10;101173.00;;;17.40
20289;BMP180;10303;51.960;8.372;2022-07-15T06:37:37;101174.00;;;17.50
20289;BMP180;10303;51.960;8.372;2022-07-15T06:40:06;101166.00;;;17.60
20289;BMP180;10303;51.960;8.372;2022-07-15T06:42:32;101168.00;;;17.70
20289;BMP180;10303;51.960;8.372;2022-07-15T06:45:01;101171.00;;;17.90
20289;BMP180;10303;51.960;8.372;2022-07-15T06:47:29;101162.00;;;18.00
20289;BMP180;10303;51.960;8.372;2022-07-15T06:49:59;101167.00;;;18.10
20289;BMP180;10303;51.960;8.372;2022-07-15T06:52:27;101171.00;;;18.20
20289;BMP180;10303;51.960;8.372;2022-07-15T06:54:54;101169.00;;;18.30
20289;BMP180;10303;51.960;8.372;2022-07-15T06:57:20;101164.00;;;18.40
20289;BMP180;10303;51.960;8.372;2022-07-15T06:59:46;101165.00;;;18.50
20289;BMP180;10303;51.960;8.372;2022-07-15T07:02:12;101164.00;;;18.60
20289;BMP180;10303;51.960;8.372;2022-07-15T07:04:40;101164.00;;;18.70
20289;BMP180;10303;51.960;8.372;2022-07-15T07:07:08;101161.00;;;18.80
20289;BMP180;10303;51.960;8.372;2022-07-15T07:09:34;101160.00;;;18.90
20289;BMP180;10303;51.960;8.372;2022-07-15T07:12:00;101162.00;;;19.00
20289;BMP180;10303;51.960;8.372;2022-07-15T07:14:26;101163.00;;;19.00
20289;BMP180;10303;51.960;8.372;2022-07-15T07:16:52;101167.00;;;19.10
20289;BMP180;10303;51.960;8.372;2022-07-15T07:19:18;101165.00;;;19.20
20289;BMP180;10303;51.960;8.372;2022-07-15T07:21:44;101167.00;;;19.30
20289;BMP180;10303;51.960;8.372;2022-07-15T07:24:10;101167.00;;;19.40
20289;BMP180;10303;51.960;8.372;2022-07-15T07:26:36;101163.00;;;19.50
20289;BMP180;10303;51.960;8.372;2022-07-15T07:29:03;101162.00;;;19.60
20289;BMP180;10303;51.960;8.372;2022-07-15T07:31:30;101153.00;;;19.60
20289;BMP180;10303;51.960;8.372;2022-07-15T07:33:57;101153.00;;;19.60
20289;BMP180;10303;51.960;8.372;2022-07-15T07:36:25;101158.00;;;19.70
20289;BMP180;10303;51.960;8.372;2022-07-15T07:38:51;101161.00;;;19.80
20289;BMP180;10303;51.960;8.372;2022-07-15T07:41:19;101150.00;;;19.90
20289;BMP180;10303;51.960;8.372;2022-07-15T07:43:44;101151.00;;;20.00
20289;BMP180;10303;51.960;8.372;2022-07-15T07:46:12;101148.00;;;20.00
20289;BMP180;10303;51.960;8.372;2022-07-15T07:48:39;101145.00;;;20.10
20289;BMP180;10303;51.960;8.372;2022-07-15T07:51:06;101156.00;;;20.20
20289;BMP180;10303;51.960;8.372;2022-07-15T07:53:33;101157.00;;;20.20
20289;BMP180;10303;51.960;8.372;2022-07-15T07:55:59;101158.00;;;20.40
20289;BMP180;10303;51.960;8.372;2022-07-15T07:58:25;101152.00;;;20.50
20289;BMP180;10303;51.960;8.372;2022-07-15T08:00:52;101145.00;;;20.60
20289;BMP180;10303;51.960;8.372;2022-07-15T08:03:18;101148.00;;;20.70
20289;BMP180;10303;51.960;8.372;2022-07-15T08:05:45;101156.00;;;20.90
20289;BMP180;10303;51.960;8.372;2022-07-15T08:08:17;101156.00;;;21.00
20289;BMP180;10303;51.960;8.372;2022-07-15T08:10:49;101146.00;;;21.20
20289;BMP180;10303;51.960;8.372;2022-07-15T08:13:18;101150.00;;;21.50
20289;BMP180;10303;51.960;8.372;2022-07-15T08:15:45;101152.00;;;21.70
20289;BMP180;10303;51.960;8.372;2022-07-15T08:18:12;101154.00;;;21.80
20289;BMP180;10303;51.960;8.372;2022-07-15T08:20:39;101150.00;;;21.80
20289;BMP180;10303;51.960;8.372;2022-07-15T08:23:05;101151.00;;;21.80
20289;BMP180;10303;51.960;8.372;2022-07-15T08:25:35;101155.00;;;21.80
20289;BMP180;10303;51.960;8.372;2022-07-15T08:28:03;101157.00;;;21.90
20289;BMP180;10303;51.960;8.372;2022-07-15T08:30:31;101156.00;;;22.00
20289;BMP180;10303;51.960;8.372;2022-07-15T08:32:59;101164.00;;;22.20
20289;BMP180;10303;51.960;8.372;2022-07-15T08:35:27;101160.00;;;22.30
20289;BMP180;10303;51.960;8.372;2022-07-15T08:37:55;101154.00;;;22.40
20289;BMP180;10303;51.960;8.372;2022-07-15T08:40:22;101158.00;;;22.50
20289;BMP180;10303;51.960;8.372;2022-07-15T08:42:50;101162.00;;;22.50
20289;BMP180;10303;51.960;8.372;2022-07-15T08:45:17;101161.00;;;22.50
20289;BMP180;10303;51.960;8.372;2022-07-15T08:47:45;101162.00;;;22.50
20289;BMP180;10303;51.960;8.372;2022-07-15T08:50:17;101159.00;;;22.40
20289;BMP180;10303;51.960;8.372;2022-07-15T08:52:46;101165.00;;;22.40
20289;BMP180;10303;51.960;8.372;2022-07-15T08:55:14;101166.00;;;22.50
20289;BMP180;10303;51.960;8.372;2022-07-15T08:57:49;101178.00;;;22.40
20289;BMP180;10303;51.960;8.372;2022-07-15T09:00:16;101167.00;;;22.50
20289;BMP180;10303;51.960;8.372;2022-07-15T09:02:43;101164.00;;;22.40
20289;BMP180;10303;51.960;8.372;2022-07-15T09:05:33;101176.00;;;22.30
20289;BMP180;10303;51.960;8.372;2022-07-15T09:08:17;101169.00;;;22.30
20289;BMP180;10303;51.960;8.372;2022-07-15T09:10:56;101164.00;;;22.50
20289;BMP180;10303;51.960;8.372;2022-07-15T09:13:40;101173.00;;;22.50
20289;BMP180;10303;51.960;8.372;2022-07-15T09:16:13;101163.00;;;22.60
20289;BMP180;10303;51.960;8.372;2022-07-15T09:18:46;101169.00;;;22.70
20289;BMP180;10303;51.960;8.372;2022-07-15T09:21:22;101165.00;;;22.70
20289;BMP180;10303;51.960;8.372;2022-07-15T09:23:50;101165.00;;;22.70
20289;BMP180;10303;51.960;8.372;2022-07-15T09:26:34;101171.00;;;22.70
20289;BMP180;10303;51.960;8.372;2022-07-15T09:29:04;101170.00;;;22.80
20289;BMP180;10303;51.960;8.372;2022-07-15T09:31:58;101162.00;;;22.80
20289;BMP180;10303;51.960;8.372;2022-07-15T09:35:05;101167.00;;;22.80
20289;BMP180;10303;51.960;8.372;2022-07-15T09:37:59;101164.00;;;22.80
20289;BMP180;10303;51.960;8.372;2022-07-15T09:40:25;101167.00;;;22.90
20289;BMP180;10303;51.960;8.372;2022-07-15T09:43:11;101174.00;;;23.00
20289;BMP180;10303;51.960;8.372;2022-07-15T09:45:38;101168.00;;;23.00
20289;BMP180;10303;51.960;8.372;2022-07-15T09:48:08;101165.00;;;23.10
20289;BMP180;10303;51.960;8.372;2022-07-15T09:50:36;101169.00;;;23.10
20289;BMP180;10303;51.960;8.372;2022-07-15T09:53:09;101164.00;;;23.20
20289;BMP180;10303;51.960;8.372;2022-07-15T09:55:36;101173.00;;;23.40
20289;BMP180;10303;51.960;8.372;2022-07-15T09:58:04;101172.00;;;23.60
20289;BMP180;10303;51.960;8.372;2022-07-15T10:00:32;101171.00;;;23.90
20289;BMP180;10303;51.960;8.372;2022-07-15T10:02:58;101178.00;;;24.20
20289;BMP180;10303;51.960;8.372;2022-07-15T10:05:24;101166.00;;;24.60
20289;BMP180;10303;51.960;8.372;2022-07-15T10:07:53;101171.00;;;24.80
20289;BMP180;10303;51.960;8.372;2022-07-15T10:10:24;101175.00;;;25.10
20289;BMP180;10303;51.960;8.372;2022-07-15T10:13:09;101174.00;;;25.20
20289;BMP180;10303;51.960;8.372;2022-07-15T10:15:50;101183.00;;;25.10
20289;BMP180;10303;51.960;8.372;2022-07-15T10:27:38;101166.00;;;25.20
20289;BMP180;10303;51.960;8.372;2022-07-15T10:30:08;101159.00;;;25.30
20289;BMP180;10303;51.960;8.372;2022-07-15T10:35:50;101166.00;;;25.20
20289;BMP180;10303;51.960;8.372;2022-07-15T10:38:34;101169.00;;;25.10
20289;BMP180;10303;51.960;8.372;2022-07-15T10:41:14;101169.00;;;25.00
20289;BMP180;10303;51.960;8.372;2022-07-15T10:43:52;101167.00;;;25.00
20289;BMP180;10303;51.960;8.372;2022-07-15T10:46:28;101163.00;;;25.00
20289;BMP180;10303;51.960;8.372;2022-07-15T10:56:41;101159.00;;;25.30
20289;BMP180;10303;51.960;8.372;2022-07-15T10:59:20;101157.00;;;25.30
20289;BMP180;10303;51.960;8.372;2022-07-15T11:04:29;101139.00;;;25.20
20289;BMP180;10303;51.960;8.372;2022-07-15T11:15:13;101143.00;;;25.20
20289;BMP180;10303;51.960;8.372;2022-07-15T11:17:43;101145.00;;;25.20
20289;BMP180;10303;51.960;8.372;2022-07-15T11:20:19;101128.00;;;25.10
20289;BMP180;10303;51.960;8.372;2022-07-15T11:22:50;101133.00;;;25.10
20289;BMP180;10303;51.960;8.372;2022-07-15T11:25:40;101133.00;;;25.00
20289;BMP180;10303;51.960;8.372;2022-07-15T11:28:14;101139.00;;;25.10
20289;BMP180;10303;51.960;8.372;2022-07-15T11:30:45;101127.00;;;25.10
20289;BMP180;10303;51.960;8.372;2022-07-15T11:33:17;101133.00;;;25.10
20289;BMP180;10303;51.960;8.372;2022-07-15T11:35:53;101132.00;;;25.10
20289;BMP180;10303;51.960;8.372;2022-07-15T11:38:25;101134.00;;;25.10
20289;BMP180;10303;51.960;8.372;2022-07-15T11:41:02;101133.00;;;25.00
20289;BMP180;10303;51.960;8.372;2022-07-15T11:44:15;101127.00;;;25.00
20289;BMP180;10303;51.960;8.372;2022-07-15T11:47:00;101136.00;;;25.00
20289;BMP180;10303;51.960;8.372;2022-07-15T11:49:31;101132.00;;;25.00
20289;BMP180;10303;51.960;8.372;2022-07-15T11:52:00;101124.00;;;25.00
20289;BMP180;10303;51.960;8.372;2022-07-15T11:54:27;101123.00;;;25.00
20289;BMP180;10303;51.960;8.372;2022-07-15T11:57:02;101121.00;;;25.00
20289;BMP180;10303;51.960;8.372;2022-07-15T11:59:29;101127.00;;;25.00
20289;BMP180;10303;51.960;8.372;2022-07-15T12:02:07;101121.00;;;25.10
20289;BMP180;10303;51.960;8.372;2022-07-15T12:04:34;101122.00;;;25.30
20289;BMP180;10303;51.960;8.372;2022-07-15T12:07:02;101123.00;;;25.50
20289;BMP180;10303;51.960;8.372;2022-07-15T12:09:43;101119.00;;;25.70
20289;BMP180;10303;51.960;8.372;2022-07-15T12:12:10;101119.00;;;25.90
20289;BMP180;10303;51.960;8.372;2022-07-15T12:14:37;101123.00;;;26.10
20289;BMP180;10303;51.960;8.372;2022-07-15T12:17:03;101118.00;;;26.10
20289;BMP180;10303;51.960;8.372;2022-07-15T12:19:32;101109.00;;;26.10
20289;BMP180;10303;51.960;8.372;2022-07-15T12:22:06;101116.00;;;26.00
20289;BMP180;10303;51.960;8.372;2022-07-15T12:24:53;101118.00;;;25.90
20289;BMP180;10303;51.960;8.372;2022-07-15T12:27:35;101113.00;;;25.90
20289;BMP180;10303;51.960;8.372;2022-07-15T12:30:08;101108.00;;;25.90
20289;BMP180;10303;51.960;8.372;2022-07-15T12:32:34;101104.00;;;26.00
20289;BMP180;10303;51.960;8.372;2022-07-15T12:35:03;101112.00;;;26.00
20289;BMP180;10303;51.960;8.372;2022-07-15T12:40:06;101104.00;;;26.20
20289;BMP180;10303;51.960;8.372;2022-07-15T12:42:44;101104.00;;;26.30
20289;BMP180;10303;51.960;8.372;2022-07-15T12:45:21;101114.00;;;26.30
20289;BMP180;10303;51.960;8.372;2022-07-15T12:48:08;101118.00;;;26.30
20289;BMP180;10303;51.960;8.372;2022-07-15T12:53:08;101107.00;;;26.50
20289;BMP180;10303;51.960;8.372;2022-07-15T12:55:46;101106.00;;;26.60
20289;BMP180;10303;51.960;8.372;2022-07-15T12:58:24;101104.00;;;26.70
20289;BMP180;10303;51.960;8.372;2022-07-15T13:00:50;101112.00;;;26.70
20289;BMP180;10303;51.960;8.372;2022-07-15T13:03:22;101113.00;;;26.70
20289;BMP180;10303;51.960;8.372;2022-07-15T13:05:55;101105.00;;;26.60
20289;BMP180;10303;51.960;8.372;2022-07-15T13:08:24;101105.00;;;26.50
20289;BMP180;10303;51.960;8.372;2022-07-15T13:10:54;101102.00;;;26.30
20289;BMP180;10303;51.960;8.372;2022-07-15T13:13:24;101117.00;;;26.20
20289;BMP180;10303;51.960;8.372;2022-07-15T13:15:52;101116.00;;;26.10
20289;BMP180;10303;51.960;8.372;2022-07-15T13:18:19;101116.00;;;26.00
20289;BMP180;10303;51.960;8.372;2022-07-15T13:20:46;101114.00;;;25.90
20289;BMP180;10303;51.960;8.372;2022-07-15T13:23:13;101109.00;;;25.80
20289;BMP180;10303;51.960;8.372;2022-07-15T13:25:39;101116.00;;;25.70
20289;BMP180;10303;51.960;8.372;2022-07-15T13:28:08;101117.00;;;25.60
20289;BMP180;10303;51.960;8.372;2022-07-15T13:30:35;101109.00;;;25.50
20289;BMP180;10303;51.960;8.372;2022-07-15T13:33:02;101113.00;;;25.50
20289;BMP180;10303;51.960;8.372;2022-07-15T13:35:28;101113.00;;;25.50
20289;BMP180;10303;51.960;8.372;2022-07-15T13:37:54;101108.00;;;25.50
20289;BMP180;10303;51.960;8.372;2022-07-15T13:40:20;101109.00;;;25.50
20289;BMP180;10303;51.960;8.372;2022-07-15T13:42:47;101104.00;;;25.50
20289;BMP180;10303;51.960;8.372;2022-07-15T13:45:14;101112.00;;;25.40
20289;BMP180;10303;51.960;8.372;2022-07-15T13:47:41;101102.00;;;25.30
20289;BMP180;10303;51.960;8.372;2022-07-15T13:50:09;101103.00;;;25.20
20289;BMP180;10303;51.960;8.372;2022-07-15T13:52:57;101112.00;;;25.20
20289;BMP180;10303;51.960;8.372;2022-07-15T13:55:23;101107.00;;;25.10
20289;BMP180;10303;51.960;8.372;2022-07-15T13:57:50;101104.00;;;25.00
20289;BMP180;10303;51.960;8.372;2022-07-15T14:00:22;101117.00;;;24.90
20289;BMP180;10303;51.960;8.372;2022-07-15T14:02:51;101113.00;;;24.90
20289;BMP180;10303;51.960;8.372;2022-07-15T14:05:18;101105.00;;;24.90
20289;BMP180;10303;51.960;8.372;2022-07-15T14:07:44;101116.00;;;24.90
20289;BMP180;10303;51.960;8.372;2022-07-15T14:10:11;101108.00;;;24.90
20289;BMP180;10303;51.960;8.372;2022-07-15T14:12:37;101111.00;;;25.00
20289;BMP180;10303;51.960;8.372;2022-07-15T14:15:04;101112.00;;;25.00
20289;BMP180;10303;51.960;8.372;2022-07-15T14:17:30;101109.00;;;25.10
20289;BMP180;10303;51.960;8.372;2022-07-15T14:19:57;101115.00;;;25.10
20289;BMP180;10303;51.960;8.372;2022-07-15T14:22:23;101112.00;;;25.10
20289;BMP180;10303;51.960;8.372;2022-07-15T14:24:53;101106.00;;;25.10
20289;BMP180;10303;51.960;8.372;2022-07-15T14:27:19;101110.00;;;25.10
20289;BMP180;10303;51.960;8.372;2022-07-15T14:29:46;101106.00;;;25.10
20289;BMP180;10303;51.960;8.372;2022-07-15T14:32:12;101095.00;;;25.10
20289;BMP180;10303;51.960;8.372;2022-07-15T14:34:38;101105.00;;;25.20
20289;BMP180;10303;51.960;8.372;2022-07-15T14:37:04;101103.00;;;25.20
20289;BMP180;10303;51.960;8.372;2022-07-15T14:39:30;101104.00;;;25.30
20289;BMP180;10303;51.960;8.372;2022-07-15T14:41:56;101108.00;;;25.30
20289;BMP180;10303;51.960;8.372;2022-07-15T14:44:22;101107.00;;;25.30
20289;BMP180;10303;51.960;8.372;2022-07-15T14:46:48;101099.00;;;25.30